Monday, October 16, 2017, 8:33 PM EDT
Back to Local

KZZV, Zanesville Municipal Airport

Location: Zanesville, OH, United States Lat: 39.95
Local Time: 8:33 PM EDT ( 0:33 GMT) Lon: -81.9
Time Zone: US/Eastern Elev: 898 ft

Show me the last for .
Show Coded

Time T Td Feel RH Dir Speed Gust Alt SLP Vis Weather Sky Remarks
2017-10-16 19:53 51 37 - 58 - Calm - 30.28 30.29 10 CLR 6-hr Min Temp (8pm): 50.0°F
6-hr Max Temp (8pm): 60.1°F
2017-10-16 18:53 52 37 - 56 310° 3 - 30.26 30.27 10 CLR None
2017-10-16 17:53 56 36 - 46 300° 7 - 30.26 30.25 10 SCT075 None
2017-10-16 16:53 56 37 - 48 290° 6 - 30.26 30.26 10 FEW075 None
2017-10-16 15:53 58 37 - 45 320° 7 - 30.25 30.25 10 CLR None
2017-10-16 14:53 60 37 - 42 Variable 5 - 30.25 30.25 10 SCT055 None
2017-10-16 13:53 58 34 - 40 330° 8 - 30.26 30.26 10 CLR 6-hr Min Temp (2pm): 46.9°F
6-hr Max Temp (2pm): 59.0°F
2017-10-16 12:53 57 39 - 50 270° 7 - 30.28 30.28 10 FEW040 None
2017-10-16 11:53 57 41 - 54 350° 9 - 30.28 30.28 10 BKN037 None
2017-10-16 10:53 54 42 - 64 330° 12 - 30.28 30.27 10 FEW050 None
2017-10-16 09:53 53 43 - 68 320° 9 - 30.26 30.26 10 SCT049 None
2017-10-16 08:53 49 42 46 77 330° 7 - 30.23 30.23 10 CLR None
2017-10-16 07:53 47 40 46 76 310° 3 - 30.21 30.21 10 CLR 24-hr Precip Total (8am): 0.34"
6-hr Min Temp (8am): 46.9°F
6-hr Max Temp (8am): 54.0°F
2017-10-16 06:53 49 40 47 70 320° 6 - 30.19 30.19 10 FEW055 None
2017-10-16 05:53 51 40 - 65 330° 6 - 30.18 30.17 10 OVC055 None
2017-10-16 04:53 52 39 - 61 320° 8 - 30.16 30.16 10 OVC049 None
2017-10-16 03:53 52 39 - 61 340° 10 - 30.15 30.14 10 OVC038 None
2017-10-16 02:53 53 42 - 66 320° 9 - 30.14 30.13 10 OVC049 None
2017-10-16 01:53 54 43 - 66 320° 12 20 30.12 30.11 10 OVC040 6-hr Min Temp (2am): 54.0°F
6-hr Max Temp (2am): 59.0°F
2017-10-16 00:53 54 46 - 74 300° 7 - 30.11 30.10 10 OVC041 24-hr Min Temp (1am): 54.0°F
24-hr Max Temp (1am): 75.9°F
2017-10-15 23:53 55 46 - 71 290° 10 - 30.09 30.08 10 FEW029 OVC043 None
2017-10-15 22:53 56 45 - 66 310° 12 - 30.08 30.07 10 BKN041 None
2017-10-15 21:53 55 45 - 68 300° 8 - 30.06 30.05 10 BKN039 None
2017-10-15 21:00 57 45 - 63 300° 15 25 30.04 - 10 FEW028 OVC035 None
2017-10-15 20:53 58 45 - 61 310° 18 29 30.03 30.02 10 BKN029 OVC035 Peak wind: 34 mph (30 kts) from 310° at 41 min
2017-10-15 20:34 59 48 - 66 330° 23 31 30.02 - 10 BKN027 OVC034 Peak wind: 31 mph (27 kts) from 330° at 33 min

Support USWX by starting your Amazon purchase here.